Bonavista, Canada
Current Conditions -  °F | °C
As of 5:00 AM on Friday 21 Nov 2014 (Local Time) from CYQX Reporting Station
Light Rain Light Rain  
Wind Chill: 26°   Ceiling: 1600
Heat Index: 37°   Visibility: 12mi
Dew Point: 36°   Wind: 26mph
Humidity: 93%   Direction: 170°S
Pressure: 29.73"   Gusts: 37mph
Location:  48.65°N, 53.11°W
Report Text: CYQX 210800Z 17023G32KT 12SM -RA FEW009 BKN016 OVC050 03/02 A2973 RMK SF1SC6SC1 SLP073
Loading
Personal Weather Stations






























Interactive Weather Map New forecast layout! Learn more

10-Day Weather Forecast

Advertisements
Track Severe Weather on mobile